createdAt,value
2018-08-07T18:02:52.992Z,984.05
2018-08-07T18:03:53.152Z,984.04
2018-08-07T18:04:53.312Z,984.05
2018-08-07T18:05:53.473Z,984.04
2018-08-07T18:06:53.657Z,984.03
2018-08-07T18:07:53.802Z,983.99
2018-08-07T18:08:53.965Z,983.99
2018-08-07T18:09:54.122Z,983.98
2018-08-07T18:10:54.293Z,983.97
2018-08-07T18:11:54.454Z,983.99
2018-08-07T18:12:54.614Z,983.97
2018-08-07T18:13:54.778Z,984.02
2018-08-07T18:14:54.941Z,984.04
2018-08-07T18:15:55.119Z,984.06
2018-08-07T18:16:55.282Z,984.07
2018-08-07T18:17:55.442Z,984.14
2018-08-07T18:18:55.607Z,984.12
2018-08-07T18:19:55.771Z,984.17
2018-08-07T18:20:55.948Z,984.19
2018-08-07T18:21:56.111Z,984.21
2018-08-07T18:22:56.272Z,984.21
2018-08-07T18:23:56.435Z,984.22
2018-08-07T18:24:56.599Z,984.22
2018-08-07T18:25:56.764Z,984.21
2018-08-07T18:26:56.936Z,984.17
2018-08-07T18:27:57.088Z,984.12
2018-08-07T18:28:57.250Z,984.11
2018-08-07T18:29:57.437Z,984.06
2018-08-07T18:30:57.604Z,984.03
2018-08-07T18:31:57.770Z,984.00
2018-08-07T18:32:57.932Z,984.02
2018-08-07T18:33:58.091Z,984.00
2018-08-07T18:34:58.252Z,984.01
2018-08-07T18:35:58.416Z,984.04
2018-08-07T18:36:58.639Z,984.05
2018-08-07T18:37:58.754Z,984.01
2018-08-07T18:38:58.988Z,984.01
2018-08-07T18:39:59.088Z,983.96
2018-08-07T18:40:59.247Z,984.00
2018-08-07T18:41:59.408Z,983.92
2018-08-07T18:42:59.566Z,983.90
2018-08-07T18:43:59.783Z,983.89
2018-08-07T18:44:59.972Z,983.84
2018-08-07T18:46:00.143Z,983.80
2018-08-07T18:47:00.307Z,983.82
2018-08-07T18:48:00.469Z,983.78
2018-08-07T18:49:00.629Z,983.78
2018-08-07T18:50:00.790Z,983.77
2018-08-07T18:51:00.993Z,983.79
2018-08-07T18:52:01.109Z,983.73
2018-08-07T18:53:01.270Z,983.72
2018-08-07T18:54:01.432Z,983.74
2018-08-07T18:55:01.596Z,983.68
2018-08-07T18:56:01.798Z,983.68
2018-08-07T18:57:01.935Z,983.63
2018-08-07T18:58:02.087Z,983.65
2018-08-07T18:59:02.248Z,983.66
2018-08-07T19:00:02.461Z,983.65
2018-08-07T19:01:02.623Z,983.67
2018-08-07T19:02:02.788Z,983.68
2018-08-07T19:03:02.979Z,983.70
2018-08-07T19:04:03.147Z,983.73
2018-08-07T19:05:03.312Z,983.80
2018-08-07T19:06:03.492Z,983.84
2018-08-07T19:07:03.655Z,983.90
2018-08-07T19:08:03.817Z,983.92
2018-08-07T19:09:04.020Z,983.94
2018-08-07T19:10:04.185Z,983.92
2018-08-07T19:11:04.355Z,983.93
2018-08-07T19:12:04.526Z,983.96
2018-08-07T19:13:04.706Z,984.00
2018-08-07T19:14:04.885Z,984.00
2018-08-07T19:15:05.083Z,983.97
2018-08-07T19:16:05.258Z,984.00
2018-08-07T19:17:05.466Z,984.02
2018-08-07T19:18:05.631Z,984.00
2018-08-07T19:19:05.886Z,983.99
2018-08-07T19:20:05.937Z,983.99
2018-08-07T19:21:06.204Z,983.99
2018-08-07T19:22:06.280Z,983.97
2018-08-07T19:23:06.454Z,983.96
2018-08-07T19:24:06.669Z,983.98
2018-08-07T19:25:06.746Z,984.02
2018-08-07T19:26:06.931Z,984.04
2018-08-07T19:27:07.123Z,984.04
2018-08-07T19:28:07.282Z,984.02
2018-08-07T19:29:07.449Z,984.04
2018-08-07T19:30:07.613Z,984.04
2018-08-07T19:31:07.792Z,984.09
2018-08-07T19:32:07.955Z,984.11
2018-08-07T19:33:08.129Z,984.14
2018-08-07T19:34:08.290Z,984.21
2018-08-07T19:35:08.557Z,984.25
2018-08-07T19:36:08.608Z,984.27
2018-08-07T19:37:08.877Z,984.27
2018-08-07T19:38:08.932Z,984.29
2018-08-07T19:39:09.088Z,984.33
2018-08-07T19:40:09.255Z,984.31
2018-08-07T19:41:09.434Z,984.32
2018-08-07T19:42:09.596Z,984.28
2018-08-07T19:43:09.821Z,984.26
2018-08-07T19:44:09.930Z,984.24
2018-08-07T19:45:10.105Z,984.21
2018-08-07T19:46:10.308Z,984.22
2018-08-07T19:47:10.681Z,984.23
2018-08-07T19:48:10.629Z,984.18
2018-08-07T19:49:10.793Z,984.19
2018-08-07T19:50:10.963Z,984.17
2018-08-07T19:51:11.124Z,984.15
2018-08-07T19:52:11.303Z,984.17
2018-08-07T19:53:11.459Z,984.16
2018-08-07T19:54:11.741Z,984.21
2018-08-07T19:55:11.808Z,984.19
2018-08-07T19:56:12.064Z,984.19
2018-08-07T19:57:12.169Z,984.20
2018-08-07T19:58:12.276Z,984.19
2018-08-07T19:59:12.319Z,984.23
2018-08-07T20:00:12.490Z,984.21
2018-08-07T20:01:12.748Z,984.20
2018-08-07T20:02:12.848Z,984.16
2018-08-07T20:03:13.014Z,984.14
2018-08-07T20:04:13.182Z,984.16
2018-08-07T20:05:13.275Z,984.13
2018-08-07T20:06:13.437Z,984.12
2018-08-07T20:07:13.596Z,984.10
2018-08-07T20:08:13.765Z,984.11
2018-08-07T20:09:13.932Z,984.10
2018-08-07T20:10:14.177Z,984.10
2018-08-07T20:11:14.217Z,984.09
2018-08-07T20:12:14.480Z,984.06
2018-08-07T20:13:14.533Z,984.07
2018-08-07T20:14:14.769Z,984.08
2018-08-07T20:15:14.832Z,984.08
2018-08-07T20:16:15.002Z,984.10
2018-08-07T20:17:15.253Z,984.11
2018-08-07T20:18:15.370Z,984.14
2018-08-07T20:19:15.540Z,984.17
2018-08-07T20:20:15.707Z,984.18
2018-08-07T20:21:15.971Z,984.22
2018-08-07T20:22:16.014Z,984.23
2018-08-07T20:23:16.213Z,984.23
2018-08-07T20:24:16.377Z,984.26
2018-08-07T20:25:16.538Z,984.25
2018-08-07T20:26:16.796Z,984.23
2018-08-07T20:27:16.859Z,984.29
2018-08-07T20:28:17.017Z,984.23
2018-08-07T20:29:17.177Z,984.25
2018-08-07T20:30:17.365Z,984.23
2018-08-07T20:31:17.530Z,984.23
2018-08-07T20:32:17.701Z,984.26
2018-08-07T20:33:17.861Z,984.22
2018-08-07T20:34:18.020Z,984.24
2018-08-07T20:35:18.180Z,984.26
2018-08-07T20:36:18.337Z,984.30
2018-08-07T20:37:18.500Z,984.30
2018-08-07T20:38:18.662Z,984.34
2018-08-07T20:39:18.823Z,984.42
2018-08-07T20:40:18.983Z,984.45
2018-08-07T20:41:19.143Z,984.52
2018-08-07T20:42:19.302Z,984.52
2018-08-07T20:43:19.460Z,984.62
2018-08-07T20:44:19.624Z,984.67
2018-08-07T20:45:19.783Z,984.73
2018-08-07T20:46:19.942Z,984.72
2018-08-07T20:47:20.104Z,984.74
2018-08-07T20:48:20.264Z,984.76
2018-08-07T20:49:20.435Z,984.75
2018-08-07T20:50:20.594Z,984.76
2018-08-07T20:51:20.754Z,984.75
2018-08-07T20:52:20.966Z,984.67
2018-08-07T20:53:21.073Z,984.62
2018-08-07T20:54:21.236Z,984.58
2018-08-07T20:55:21.394Z,984.50
2018-08-07T20:56:21.558Z,984.50
2018-08-07T20:57:21.713Z,984.40
2018-08-07T20:58:21.878Z,984.37
2018-08-07T20:59:22.037Z,984.35
2018-08-07T21:00:22.203Z,984.37
2018-08-07T21:01:22.398Z,984.37
2018-08-07T21:02:22.518Z,984.33
2018-08-07T21:03:22.681Z,984.33
2018-08-07T21:04:22.837Z,984.36
2018-08-07T21:05:22.995Z,984.34
2018-08-07T21:06:23.156Z,984.31
2018-08-07T21:07:23.315Z,984.32
2018-08-07T21:08:23.476Z,984.31
2018-08-07T21:09:23.638Z,984.30
2018-08-07T21:10:23.783Z,984.28
2018-08-07T21:11:23.959Z,984.32
2018-08-07T21:12:24.120Z,984.32
2018-08-07T21:13:24.281Z,984.34
2018-08-07T21:14:24.437Z,984.34
2018-08-07T21:15:24.597Z,984.35
2018-08-07T21:16:24.776Z,984.35
2018-08-07T21:17:24.918Z,984.33
2018-08-07T21:18:25.081Z,984.30
2018-08-07T21:19:25.257Z,984.32
2018-08-07T21:20:25.398Z,984.34
2018-08-07T21:21:25.556Z,984.31
2018-08-07T21:22:25.788Z,984.34
2018-08-07T21:23:25.875Z,984.33
2018-08-07T21:24:26.036Z,984.34
2018-08-07T21:25:26.196Z,984.33
2018-08-07T21:26:26.353Z,984.37
2018-08-07T21:27:26.510Z,984.32
2018-08-07T21:28:26.703Z,984.31
2018-08-07T21:29:26.827Z,984.33
2018-08-07T21:30:26.987Z,984.31
2018-08-07T21:31:27.147Z,984.33
2018-08-07T21:32:27.311Z,984.31
2018-08-07T21:33:27.465Z,984.29
2018-08-07T21:34:27.623Z,984.25
2018-08-07T21:35:27.786Z,984.27
2018-08-07T21:36:27.952Z,984.27
2018-08-07T21:37:28.096Z,984.27
2018-08-07T21:38:28.258Z,984.33
2018-08-07T21:39:28.413Z,984.31
2018-08-07T21:40:28.571Z,984.31
2018-08-07T21:41:28.730Z,984.33
2018-08-07T21:42:28.888Z,984.33
2018-08-07T21:43:29.049Z,984.33
2018-08-07T21:44:29.208Z,984.33
2018-08-07T21:45:29.404Z,984.31
2018-08-07T21:46:29.523Z,984.32
2018-08-07T21:47:29.682Z,984.31
2018-08-07T21:48:29.841Z,984.27
2018-08-07T21:49:30.000Z,984.29
2018-08-07T21:50:30.159Z,984.25
2018-08-07T21:51:30.318Z,984.22
2018-08-07T21:52:30.480Z,984.17
2018-08-07T21:53:30.637Z,984.11
2018-08-07T21:54:30.796Z,984.06
2018-08-07T21:55:30.954Z,984.02
2018-08-07T21:56:31.114Z,984.01
2018-08-07T21:57:31.275Z,983.98
2018-08-07T21:58:31.436Z,984.03
2018-08-07T21:59:31.596Z,984.01
2018-08-07T22:00:31.756Z,983.99
2018-08-07T22:01:31.917Z,983.99
2018-08-07T22:02:32.076Z,983.98
2018-08-07T22:03:32.235Z,983.94
2018-08-07T22:04:32.393Z,983.95
2018-08-07T22:05:32.552Z,983.97
2018-08-07T22:06:32.710Z,983.94
2018-08-07T22:07:32.870Z,983.92
2018-08-07T22:08:33.032Z,983.88
2018-08-07T22:09:33.203Z,983.83
2018-08-07T22:10:33.440Z,983.80
2018-08-07T22:11:33.540Z,983.74
2018-08-07T22:12:33.699Z,983.66
2018-08-07T22:13:33.859Z,983.65
2018-08-07T22:14:34.018Z,983.64
2018-08-07T22:15:34.177Z,983.63
2018-08-07T22:16:34.335Z,983.61
2018-08-07T22:17:34.494Z,983.64
2018-08-07T22:18:34.651Z,983.64
2018-08-07T22:19:34.811Z,983.60
2018-08-07T22:20:34.969Z,983.57
2018-08-07T22:21:35.138Z,983.58
2018-08-07T22:22:35.298Z,983.62
2018-08-07T22:23:35.459Z,983.63
2018-08-07T22:24:35.615Z,983.66
2018-08-07T22:25:35.776Z,983.65
2018-08-07T22:26:35.933Z,983.71
2018-08-07T22:27:36.093Z,983.72
2018-08-07T22:28:36.254Z,983.66
2018-08-07T22:29:36.414Z,983.69
2018-08-07T22:30:36.572Z,983.68
2018-08-07T22:31:36.777Z,983.71
2018-08-07T22:32:36.890Z,983.74
2018-08-07T22:33:37.051Z,983.80
2018-08-07T22:34:37.209Z,983.81
2018-08-07T22:35:37.367Z,983.78
2018-08-07T22:36:37.525Z,983.76
2018-08-07T22:37:37.687Z,983.81
2018-08-07T22:38:37.844Z,983.78
2018-08-07T22:39:38.004Z,983.83
2018-08-07T22:40:38.166Z,983.88
2018-08-07T22:41:38.322Z,983.92
2018-08-07T22:42:38.483Z,983.97
2018-08-07T22:43:38.639Z,984.00
2018-08-07T22:44:38.799Z,984.04
2018-08-07T22:45:38.958Z,983.95
2018-08-07T22:46:39.119Z,983.96
2018-08-07T22:47:39.276Z,983.93
2018-08-07T22:48:39.433Z,983.96
2018-08-07T22:49:39.597Z,984.02
2018-08-07T22:50:39.757Z,984.05
2018-08-07T22:51:39.918Z,984.01
2018-08-07T22:52:40.077Z,984.03
2018-08-07T22:53:40.236Z,984.01
2018-08-07T22:54:40.394Z,983.98
2018-08-07T22:55:40.551Z,983.94
2018-08-07T22:56:40.710Z,983.91
2018-08-07T22:57:40.869Z,983.84
2018-08-07T22:58:41.035Z,983.83
2018-08-07T22:59:41.180Z,983.88
2018-08-07T23:00:41.340Z,983.83
2018-08-07T23:01:41.498Z,983.85
2018-08-07T23:02:41.657Z,983.86
2018-08-07T23:03:41.815Z,983.81
2018-08-07T23:04:41.972Z,983.77
2018-08-07T23:05:42.129Z,983.71
2018-08-07T23:06:42.288Z,983.66
2018-08-07T23:07:42.447Z,983.63
2018-08-07T23:08:42.605Z,983.66
2018-08-07T23:09:42.765Z,983.62
2018-08-07T23:10:42.921Z,983.65
2018-08-07T23:11:43.079Z,983.71
2018-08-07T23:12:43.244Z,983.68
2018-08-07T23:13:43.399Z,983.66
2018-08-07T23:14:43.561Z,983.65
2018-08-07T23:15:43.718Z,983.62
2018-08-07T23:16:43.877Z,983.58
2018-08-07T23:17:44.034Z,983.54
2018-08-07T23:18:44.192Z,983.52
2018-08-07T23:19:44.351Z,983.45
2018-08-07T23:20:44.508Z,983.44
2018-08-07T23:21:44.666Z,983.42
2018-08-07T23:22:44.824Z,983.38
2018-08-07T23:23:44.990Z,983.37
2018-08-07T23:24:45.142Z,983.41
2018-08-07T23:25:45.302Z,983.41
2018-08-07T23:26:45.466Z,983.42
2018-08-07T23:27:45.618Z,983.42
2018-08-07T23:28:45.778Z,983.39
2018-08-07T23:29:45.936Z,983.39
2018-08-07T23:30:46.096Z,983.37
2018-08-07T23:31:46.256Z,983.39
2018-08-07T23:32:46.419Z,983.39
2018-08-07T23:33:46.576Z,983.39
2018-08-07T23:34:46.731Z,983.35
2018-08-07T23:35:46.890Z,983.36
2018-08-07T23:36:47.048Z,983.36
2018-08-07T23:37:47.209Z,983.35
2018-08-07T23:38:47.368Z,983.34
2018-08-07T23:39:47.523Z,983.34
2018-08-07T23:40:47.684Z,983.34
2018-08-07T23:41:47.842Z,983.30
2018-08-07T23:42:48.002Z,983.26
2018-08-07T23:43:48.160Z,983.25
2018-08-07T23:44:48.314Z,983.26
2018-08-07T23:45:48.476Z,983.24
2018-08-07T23:46:48.631Z,983.19
2018-08-07T23:47:48.791Z,983.18
2018-08-07T23:48:48.945Z,983.19
2018-08-07T23:49:49.105Z,983.16
2018-08-07T23:50:49.263Z,983.16
2018-08-07T23:51:49.424Z,983.17
2018-08-07T23:52:49.582Z,983.17
2018-08-07T23:53:49.740Z,983.14
2018-08-07T23:54:49.895Z,983.11
2018-08-07T23:55:50.053Z,983.12
2018-08-07T23:56:50.209Z,983.12
2018-08-07T23:57:50.367Z,983.10
2018-08-07T23:58:50.524Z,983.06
2018-08-07T23:59:50.687Z,983.04
